Greenacres, WA

10:15 PM PDT on September 20, 2014 (GMT -0700)
Liberty Lake | Change Station
CLOSE
Current Station
Personal Weather Station
Location: Liberty Lake, WA
Elevation: 2838 ft
Nearby Weather Stations

Elev 2838 ft 47.62 °N, 117.09 °W | Updated 6 minutes ago

Clear
Clear
70.2 °F
Feels Like 77 °F
N
8.0
Wind Variable Wind from NE
Gusts 13.0 mph

Today
High -- | Low -- °F
--% Chance of Precip.
Yesterday
High -- | Low -- °F
Precip. -- in
6:32 AM 6:50 PM
Waning Crescent, 8% visible
Pressure 30.03 in
Visibility 10.0 miles
Clouds Clear
Heat Index 77 °F
Dew Point 40 °F
Humidity 34%
Rainfall 0.00 in
Snow Depth 0 in , 0 in , 0 in
UV 0 out of 12
Pollen 7.80 out of 12
PM2.5 Good
Flu Activity Not available.
METAR KSFF 210353Z AUTO 00000KT 10SM CLR 17/05 A3005 RMK AO2 SLP169 T01720050

More Conditions Fewer Conditions

Pressure 30.03 in
Visibility 10.0 miles
Clouds Clear
Heat Index 77 °F
Dew Point 40 °F
Humidity 34%
Rainfall 0.00 in
Snow Depth 0 in , 0 in , 0 in
UV 0 out of 12
Pollen 7.80 out of 12
PM2.5 Good
Flu Activity Not available.
METAR KSFF 210353Z AUTO 00000KT 10SM CLR 17/05 A3005 RMK AO2 SLP169 T01720050

More Conditions Fewer Conditions

10-Day Weather Forecast

Almanac

Astronomy

Sep. 20, 2014 Rise Set
Actual Time 6:32 AM PDT 6:50 PM PDT
Civil Twilight 6:01 AM PDT 7:20 PM PDT
Nautical Twilight 5:25 AM PDT 7:57 PM PDT
Astronomical Twilight 4:47 AM PDT 8:34 PM PDT
Moon 3:04 AM PDT (9/20) 5:05 PM PDT (9/20)
Length of Visible Light 13h 19m
Length of Day
12h 17m
Tomorrow will be 3m 25s shorter.
Waning Crescent, 8% of the Moon is Illuminated
Sep 21
Waning Crescent
Sep 24
New
Oct 1
First Quarter
Oct 8
Full
Oct 15
Last Quarter

Yesterday's Extremes

State Highs State Lows

Community

WunderPhotos

Upload Photos

1,755,091 photos uploaded!

Nearby

Air Quality

  Air Quality AQ Index Pollutant
Yesterday Good
OZONE
Yesterday Good
PM10
Current Good
PM2.5
Saturday Good
PM10
Saturday Good
OZONE
Sunday Good
PM10
Sunday Good
OZONE
Monday Good
PM10
Monday Good
OZONE

Snow Depth

Station Depth Elevation
Swift Creek 0 in 3770 ft
Harts Pass 0 in 6500 ft
Touchet 0 in 5530 ft
Dungeness 0 in 4100 ft
Grouse Camp 0 in 5380 ft

Earthquake Activity

City Distance Mag. Time & Date
No recent earthquake activity has been reported nearby.
Minimum magnitude displayed is 2.5.

Coastal Water Temperatures

Place Temperature
No Stations Reporting

Nearby Weather Stations